Time;durP1;ratioP1;P1;durP2;ratioP2;P2;SDS_P1;SDS_P2;PMS_P1;PMS_P2;Temp;Humidity;BMP_temperature;BMP_pressure;BME280_temperature;BME280_humidity;BME280_pressure;Samples;Min_cycle;Max_cycle;Signal;HPM_P1;HPM_P2
2023/05/26 00:00:53;;;;;;;1.50;1.00;;;12.50;98.20;;;;;;5058958;28;20458;-83
2023/05/26 00:03:20;;;;;;;1.50;1.00;;;12.50;98.20;;;;;;5059200;28;20478;-85
2023/05/26 00:05:47;;;;;;;1.50;1.10;;;12.50;98.20;;;;;;5062573;28;20521;-84
2023/05/26 00:08:15;;;;;;;1.50;1.10;;;12.50;98.20;;;;;;5058736;28;20470;-79
2023/05/26 00:10:42;;;;;;;1.50;1.10;;;12.40;98.20;;;;;;5060087;28;20854;-80
2023/05/26 00:13:09;;;;;;;1.50;1.03;;;12.40;98.20;;;;;;5059309;28;20458;-81
2023/05/26 00:15:36;;;;;;;1.50;1.10;;;12.40;98.20;;;;;;5058605;28;20462;-81
2023/05/26 00:18:02;;;;;;;1.50;1.00;;;12.30;98.20;;;;;;5055324;28;20461;-81
2023/05/26 00:20:30;;;;;;;1.50;1.00;;;12.30;98.20;;;;;;5058263;28;20486;-80
2023/05/26 00:22:56;;;;;;;1.50;1.10;;;12.30;98.20;;;;;;5058353;28;20525;-82
2023/05/26 00:25:25;;;;;;;1.47;1.00;;;12.30;98.20;;;;;;5059064;28;20484;-80
2023/05/26 00:27:51;;;;;;;1.50;1.13;;;12.30;98.20;;;;;;5059525;28;20458;-81
2023/05/26 00:30:18;;;;;;;1.50;1.00;;;12.30;98.20;;;;;;5061372;28;20469;-83
2023/05/26 00:32:45;;;;;;;1.50;1.00;;;12.20;98.20;;;;;;5063120;28;20561;-84
2023/05/26 00:35:12;;;;;;;1.50;1.00;;;12.20;98.20;;;;;;5057027;28;20477;-82
2023/05/26 00:37:39;;;;;;;1.50;1.00;;;12.20;98.20;;;;;;5058413;28;20493;-83
2023/05/26 00:40:07;;;;;;;1.50;1.00;;;12.20;98.20;;;;;;5064434;28;20462;-80
2023/05/26 00:42:35;;;;;;;1.47;1.00;;;12.20;98.20;;;;;;5062208;28;20454;-81
2023/05/26 00:45:02;;;;;;;1.50;1.00;;;12.20;98.20;;;;;;5060615;28;20474;-81
2023/05/26 00:47:29;;;;;;;1.50;1.10;;;12.10;98.20;;;;;;5060526;28;20881;-82
2023/05/26 00:49:56;;;;;;;1.43;1.00;;;12.10;98.20;;;;;;5061410;28;20934;-82
2023/05/26 00:52:23;;;;;;;1.50;1.07;;;12.10;98.20;;;;;;5064812;28;20459;-82
2023/05/26 00:54:50;;;;;;;1.50;1.00;;;12.10;98.20;;;;;;5063321;28;20454;-82
2023/05/26 00:57:17;;;;;;;1.50;1.00;;;12.10;98.20;;;;;;5061656;28;20478;-84
2023/05/26 00:59:46;;;;;;;1.50;1.00;;;12.00;98.20;;;;;;5058770;28;20454;-82
2023/05/26 01:02:14;;;;;;;1.50;1.00;;;12.00;98.20;;;;;;5056604;28;20469;-81
2023/05/26 01:04:44;;;;;;;1.47;1.10;;;12.00;98.20;;;;;;5057807;28;20470;-85
2023/05/26 01:07:11;;;;;;;1.50;1.07;;;11.90;98.20;;;;;;5058636;28;20699;-81
2023/05/26 01:09:41;;;;;;;1.50;1.10;;;11.90;98.20;;;;;;5058753;28;20512;-85
2023/05/26 01:12:12;;;;;;;1.50;1.07;;;11.80;98.20;;;;;;5056528;28;20471;-82
2023/05/26 01:14:54;;;;;;;1.47;1.00;;;11.80;98.20;;;;;;5058634;28;20458;-84
2023/05/26 01:17:27;;;;;;;1.50;1.10;;;11.80;98.20;;;;;;5052361;28;20481;-82
2023/05/26 01:20:17;;;;;;;1.50;1.10;;;11.70;98.20;;;;;;5060580;28;20468;-85
2023/05/26 01:23:20;;;;;;;1.47;1.00;;;11.70;98.20;;;;;;5057916;28;20459;-82
2023/05/26 01:26:03;;;;;;;1.50;1.10;;;11.70;98.20;;;;;;5039588;28;20555;-84
2023/05/26 01:28:33;;;;;;;1.50;1.00;;;11.70;98.20;;;;;;5060717;28;20544;-80
2023/05/26 01:31:01;;;;;;;1.50;1.00;;;11.60;98.20;;;;;;5061814;28;20930;-82
2023/05/26 01:33:28;;;;;;;1.50;1.00;;;11.60;98.20;;;;;;5066599;28;20922;-82
2023/05/26 01:35:55;;;;;;;1.50;1.00;;;11.60;98.20;;;;;;5055591;28;20510;-80
2023/05/26 01:38:22;;;;;;;1.50;1.00;;;11.50;98.20;;;;;;5064503;28;20459;-85
2023/05/26 01:40:57;;;;;;;1.43;1.00;;;11.50;98.20;;;;;;5065426;28;20811;-83
2023/05/26 01:43:30;;;;;;;1.50;1.10;;;11.50;98.20;;;;;;5064871;28;20462;-83
2023/05/26 01:46:03;;;;;;;1.50;1.20;;;11.40;98.20;;;;;;5067456;28;20489;-83
2023/05/26 01:48:32;;;;;;;1.50;1.10;;;11.40;98.20;;;;;;5056945;28;20800;-81
2023/05/26 01:51:02;;;;;;;1.50;1.00;;;11.40;98.20;;;;;;5067094;28;20469;-84
2023/05/26 01:53:32;;;;;;;1.50;1.07;;;11.30;98.20;;;;;;5063583;28;20821;-81
2023/05/26 01:56:01;;;;;;;1.50;1.10;;;11.30;98.20;;;;;;5061272;28;20765;-82
2023/05/26 01:58:29;;;;;;;1.50;1.10;;;11.30;98.20;;;;;;5052176;28;20470;-81
2023/05/26 02:00:58;;;;;;;1.50;1.00;;;11.20;98.20;;;;;;5053642;28;20463;-82
2023/05/26 02:03:25;;;;;;;1.50;1.07;;;11.20;98.20;;;;;;5052919;28;20892;-81
2023/05/26 02:05:52;;;;;;;1.50;1.00;;;11.20;98.20;;;;;;5063418;28;20988;-81
2023/05/26 02:08:19;;;;;;;1.50;1.10;;;11.10;98.20;;;;;;5055697;28;20459;-80
2023/05/26 02:10:46;;;;;;;1.50;1.20;;;11.10;98.20;;;;;;5060614;28;20457;-85
2023/05/26 02:13:12;;;;;;;1.50;1.10;;;11.10;98.20;;;;;;5050820;28;21198;-85
2023/05/26 02:15:40;;;;;;;1.50;1.07;;;11.10;98.20;;;;;;5060413;28;20454;-83
2023/05/26 02:18:10;;;;;;;1.50;1.07;;;11.10;98.20;;;;;;5058830;28;20911;-82
2023/05/26 02:20:37;;;;;;;1.50;1.20;;;11.00;98.20;;;;;;5065218;28;20455;-82
2023/05/26 02:23:04;;;;;;;1.50;1.20;;;11.00;98.20;;;;;;5064518;28;20473;-84
2023/05/26 02:25:30;;;;;;;1.47;1.00;;;11.00;98.20;;;;;;5061949;28;20462;-85
2023/05/26 02:27:57;;;;;;;1.50;1.10;;;11.00;98.20;;;;;;5059901;28;20869;-83
2023/05/26 02:30:24;;;;;;;1.50;1.00;;;10.90;98.20;;;;;;5063324;28;20465;-84
2023/05/26 02:32:52;;;;;;;1.50;1.10;;;10.90;98.20;;;;;;5054920;28;20840;-82
2023/05/26 02:35:20;;;;;;;1.50;1.20;;;10.90;98.20;;;;;;5059566;28;20549;-81
2023/05/26 02:37:47;;;;;;;1.50;1.10;;;10.80;98.20;;;;;;5059869;28;20488;-83
2023/05/26 02:40:14;;;;;;;1.50;1.10;;;10.80;98.20;;;;;;5059177;28;20469;-83
2023/05/26 02:42:41;;;;;;;1.50;1.10;;;10.80;98.20;;;;;;5066903;28;20507;-84
2023/05/26 02:45:09;;;;;;;1.50;1.10;;;10.70;98.20;;;;;;5060707;28;20498;-85
2023/05/26 02:47:37;;;;;;;1.47;1.10;;;10.70;98.20;;;;;;5063290;28;20547;-82
2023/05/26 02:50:04;;;;;;;1.50;1.10;;;10.70;98.20;;;;;;5062463;28;20458;-82
2023/05/26 02:52:32;;;;;;;1.50;1.10;;;10.70;98.20;;;;;;5060440;28;20461;-82
2023/05/26 02:55:01;;;;;;;1.50;1.07;;;10.60;98.20;;;;;;5060957;28;20466;-83
2023/05/26 02:57:28;;;;;;;1.50;1.10;;;10.60;98.20;;;;;;5064318;28;20796;-84
2023/05/26 02:59:55;;;;;;;1.50;1.10;;;10.60;98.20;;;;;;5061277;28;20455;-85
2023/05/26 03:02:22;;;;;;;1.60;1.37;;;10.50;98.20;;;;;;5054507;28;20508;-83
2023/05/26 03:04:49;;;;;;;1.50;1.10;;;10.50;98.20;;;;;;5055589;28;20454;-80
2023/05/26 03:07:15;;;;;;;1.50;1.10;;;10.40;98.20;;;;;;5054563;28;20493;-86
2023/05/26 03:09:43;;;;;;;1.50;1.30;;;10.40;98.20;;;;;;5064171;28;20461;-81
2023/05/26 03:12:15;;;;;;;1.50;1.10;;;10.40;98.20;;;;;;5062337;28;20485;-80
2023/05/26 03:14:42;;;;;;;1.50;1.10;;;10.40;98.20;;;;;;5063197;28;20454;-82
2023/05/26 03:17:09;;;;;;;1.50;1.10;;;10.40;98.20;;;;;;5063273;28;20550;-81
2023/05/26 03:19:36;;;;;;;1.50;1.10;;;10.40;98.20;;;;;;5063648;28;20478;-78
2023/05/26 03:22:02;;;;;;;1.50;1.10;;;10.30;98.20;;;;;;5061381;28;20454;-81
2023/05/26 03:24:29;;;;;;;2.27;1.97;;;10.30;98.20;;;;;;5062144;28;20458;-81
2023/05/26 03:26:57;;;;;;;1.50;1.10;;;10.30;98.20;;;;;;5062106;28;20631;-83
2023/05/26 03:29:24;;;;;;;1.50;1.10;;;10.20;98.20;;;;;;5060992;28;20446;-84
2023/05/26 03:31:51;;;;;;;1.50;1.10;;;10.20;98.20;;;;;;5061282;28;20469;-84
2023/05/26 03:34:17;;;;;;;1.50;1.10;;;10.20;98.20;;;;;;5059985;28;20511;-82
2023/05/26 03:36:46;;;;;;;1.50;1.00;;;10.20;98.20;;;;;;5055894;28;20482;-82
2023/05/26 03:41:50;;;;;;;1.50;1.10;;;10.10;98.20;;;;;;5073435;28;20537;-83
2023/05/26 03:44:21;;;;;;;1.50;1.10;;;10.10;98.20;;;;;;5078320;28;20978;-83
2023/05/26 03:46:48;;;;;;;1.50;1.10;;;10.10;98.20;;;;;;5078793;28;20516;-83
2023/05/26 03:49:15;;;;;;;1.47;1.03;;;10.10;98.20;;;;;;5073976;28;20461;-83
2023/05/26 03:51:42;;;;;;;1.50;1.10;;;10.10;98.20;;;;;;5070134;28;20462;-84
2023/05/26 03:54:09;;;;;;;1.50;1.10;;;10.10;98.20;;;;;;5069043;28;20496;-83
2023/05/26 03:56:36;;;;;;;1.50;1.00;;;10.10;98.20;;;;;;5071801;28;20491;-84
2023/05/26 03:59:03;;;;;;;1.50;1.10;;;10.10;98.20;;;;;;5071186;28;20543;-83
2023/05/26 04:01:37;;;;;;;1.50;1.10;;;10.10;98.20;;;;;;5069702;28;20480;-84
2023/05/26 04:04:04;;;;;;;1.50;1.10;;;10.10;98.20;;;;;;5070485;28;20457;-83
2023/05/26 04:06:31;;;;;;;1.50;1.17;;;10.00;98.20;;;;;;5068571;28;20543;-83
2023/05/26 04:08:59;;;;;;;1.50;1.10;;;10.00;98.20;;;;;;5069210;28;20839;-83
2023/05/26 04:11:26;;;;;;;1.50;1.10;;;10.00;98.20;;;;;;5068235;28;20572;-82
2023/05/26 04:13:54;;;;;;;1.50;1.10;;;10.00;98.20;;;;;;5069106;28;20464;-83
2023/05/26 04:16:25;;;;;;;1.50;1.30;;;10.00;98.20;;;;;;5070906;28;20548;-81
2023/05/26 04:18:53;;;;;;;2.23;2.07;;;10.00;98.20;;;;;;5069799;28;20465;-81
2023/05/26 04:21:20;;;;;;;1.50;1.10;;;10.00;98.20;;;;;;5068661;28;20993;-80
2023/05/26 04:23:47;;;;;;;1.50;1.10;;;10.00;98.20;;;;;;5066149;28;20896;-81
2023/05/26 04:26:16;;;;;;;1.50;1.03;;;10.00;98.20;;;;;;5070933;28;20837;-81
2023/05/26 04:28:44;;;;;;;1.50;1.10;;;10.00;98.20;;;;;;5069046;28;21031;-80
2023/05/26 04:31:10;;;;;;;1.50;1.10;;;10.00;98.20;;;;;;5072805;28;20485;-80
2023/05/26 04:33:40;;;;;;;1.50;1.20;;;10.00;98.20;;;;;;5066080;28;20493;-83
2023/05/26 04:36:09;;;;;;;1.47;1.10;;;10.00;98.20;;;;;;5065754;28;20534;-84
2023/05/26 04:38:36;;;;;;;1.50;1.10;;;10.10;98.20;;;;;;5067960;28;20869;-83
2023/05/26 04:41:06;;;;;;;1.50;1.10;;;10.10;98.20;;;;;;5062166;28;20486;-83
2023/05/26 04:43:40;;;;;;;1.50;1.20;;;10.10;98.20;;;;;;5070523;28;20887;-83
2023/05/26 04:46:08;;;;;;;1.87;1.67;;;10.20;98.20;;;;;;5071368;28;20468;-82
2023/05/26 04:48:36;;;;;;;1.50;1.10;;;10.30;98.20;;;;;;5070754;28;20549;-83
2023/05/26 04:51:03;;;;;;;1.50;1.10;;;10.40;98.20;;;;;;5065555;28;20486;-83
2023/05/26 04:53:34;;;;;;;1.50;1.10;;;10.40;98.20;;;;;;5069828;28;20556;-84
2023/05/26 04:56:02;;;;;;;1.50;1.10;;;10.50;98.20;;;;;;5065862;28;20580;-85
2023/05/26 04:58:32;;;;;;;1.50;1.10;;;10.50;98.20;;;;;;5067735;28;20481;-85
2023/05/26 05:01:02;;;;;;;1.50;1.10;;;10.60;98.20;;;;;;5070524;28;20941;-84
2023/05/26 05:03:31;;;;;;;1.50;1.00;;;10.70;98.20;;;;;;5063812;28;20479;-84
2023/05/26 05:06:12;;;;;;;1.50;1.10;;;10.70;98.20;;;;;;5065794;28;20466;-85
2023/05/26 05:08:40;;;;;;;1.50;1.00;;;10.80;98.20;;;;;;5064025;28;20492;-83
2023/05/26 05:11:07;;;;;;;1.50;1.10;;;10.80;98.20;;;;;;5069053;28;20515;-84
2023/05/26 05:13:45;;;;;;;1.50;1.00;;;10.90;98.20;;;;;;5070489;28;20574;-82
2023/05/26 05:16:12;;;;;;;1.50;1.07;;;11.00;98.20;;;;;;5061075;28;20474;-81
2023/05/26 05:18:40;;;;;;;1.50;1.10;;;11.10;98.20;;;;;;5067775;28;20609;-80
2023/05/26 05:21:07;;;;;;;1.50;1.10;;;11.10;98.20;;;;;;5067917;28;21039;-82
2023/05/26 05:23:34;;;;;;;1.50;1.10;;;11.10;98.20;;;;;;5068232;28;20636;-82
2023/05/26 05:26:02;;;;;;;1.50;1.00;;;11.00;98.20;;;;;;5065819;28;20480;-79
2023/05/26 05:28:34;;;;;;;3.20;3.00;;;11.10;98.20;;;;;;5065898;28;20509;-81
2023/05/26 05:31:01;;;;;;;1.50;1.10;;;11.10;98.20;;;;;;5064957;28;20484;-82
2023/05/26 05:33:28;;;;;;;2.63;2.33;;;11.10;98.20;;;;;;5069562;28;20560;-82
2023/05/26 05:35:57;;;;;;;1.50;1.10;;;11.10;98.20;;;;;;5073896;28;20472;-80
2023/05/26 05:38:24;;;;;;;1.50;1.10;;;11.20;98.20;;;;;;5068397;28;20465;-81
2023/05/26 05:40:50;;;;;;;1.50;1.10;;;11.20;98.20;;;;;;5064323;28;21639;-82
2023/05/26 05:43:19;;;;;;;1.50;1.10;;;11.20;98.20;;;;;;5065534;28;20538;-80
2023/05/26 05:45:46;;;;;;;1.50;1.10;;;11.20;98.20;;;;;;5065038;28;20464;-78
2023/05/26 05:48:12;;;;;;;1.50;1.10;;;11.30;98.20;;;;;;5065677;28;20478;-82
2023/05/26 05:50:39;;;;;;;1.50;1.10;;;11.40;98.20;;;;;;5064980;28;20488;-81
2023/05/26 05:53:06;;;;;;;1.50;1.17;;;11.30;98.20;;;;;;5063753;28;20496;-79
2023/05/26 05:55:33;;;;;;;1.50;1.10;;;11.40;98.20;;;;;;5067295;28;20480;-80
2023/05/26 05:58:00;;;;;;;1.50;1.10;;;11.50;98.20;;;;;;5067200;28;20476;-79
2023/05/26 06:00:28;;;;;;;1.50;1.10;;;11.60;98.20;;;;;;5065163;28;20591;-80
2023/05/26 06:02:55;;;;;;;1.60;1.30;;;11.70;98.20;;;;;;5066563;28;20453;-78
2023/05/26 06:05:22;;;;;;;1.50;1.00;;;11.70;98.20;;;;;;5056390;28;20461;-83
2023/05/26 06:07:52;;;;;;;1.50;1.10;;;11.70;98.20;;;;;;5058185;28;20485;-80
2023/05/26 06:10:18;;;;;;;1.50;1.10;;;11.80;98.20;;;;;;5058318;28;20562;-78
2023/05/26 06:12:48;;;;;;;1.50;1.10;;;11.90;98.20;;;;;;5063492;28;20860;-79
2023/05/26 06:15:17;;;;;;;1.50;1.00;;;12.00;98.20;;;;;;5068900;28;20466;-79
2023/05/26 06:17:45;;;;;;;1.70;1.40;;;12.20;98.20;;;;;;5067191;28;20462;-78
2023/05/26 06:20:12;;;;;;;1.50;1.10;;;12.40;98.20;;;;;;5065968;28;20495;-79
2023/05/26 06:22:40;;;;;;;1.50;1.03;;;12.70;98.20;;;;;;5058214;28;20478;-79
2023/05/26 06:25:08;;;;;;;1.53;1.13;;;12.90;98.20;;;;;;5066480;28;20890;-79
2023/05/26 06:27:35;;;;;;;1.50;1.20;;;13.00;98.20;;;;;;5062181;28;20509;-79
2023/05/26 06:30:02;;;;;;;1.50;1.00;;;13.00;98.20;;;;;;5060569;28;20508;-80
2023/05/26 06:32:29;;;;;;;1.50;1.00;;;13.00;98.20;;;;;;5059077;28;20462;-80
2023/05/26 06:34:58;;;;;;;1.50;1.10;;;13.10;98.20;;;;;;5060884;28;20492;-81
2023/05/26 06:37:25;;;;;;;1.50;1.20;;;13.20;98.20;;;;;;5069376;28;20465;-78
2023/05/26 06:39:52;;;;;;;1.50;1.10;;;13.30;98.20;;;;;;5055577;28;20943;-77
2023/05/26 06:42:19;;;;;;;1.50;1.00;;;13.30;98.20;;;;;;5061160;28;20453;-77
2023/05/26 06:44:47;;;;;;;1.70;1.50;;;13.50;98.20;;;;;;5059123;28;20465;-75
2023/05/26 06:47:14;;;;;;;1.50;1.00;;;13.50;98.20;;;;;;5060056;28;20473;-81
2023/05/26 06:49:41;;;;;;;1.50;1.00;;;13.40;98.20;;;;;;5065182;28;20481;-80
2023/05/26 06:52:10;;;;;;;1.50;0.90;;;13.30;98.20;;;;;;5064878;28;21050;-80
2023/05/26 06:54:37;;;;;;;1.50;0.90;;;13.40;98.20;;;;;;5064500;28;21194;-80
2023/05/26 06:57:06;;;;;;;1.50;1.00;;;13.40;98.20;;;;;;5065956;28;20485;-81
2023/05/26 06:59:33;;;;;;;1.50;1.00;;;13.50;98.20;;;;;;5064069;28;20841;-79
2023/05/26 07:02:00;;;;;;;1.50;1.00;;;13.50;98.20;;;;;;5062676;28;20690;-79
2023/05/26 07:04:27;;;;;;;1.50;1.00;;;13.50;98.20;;;;;;5063548;28;20494;-80
2023/05/26 07:06:55;;;;;;;1.50;1.10;;;13.70;98.20;;;;;;5067254;28;20469;-80
2023/05/26 07:09:23;;;;;;;1.50;1.00;;;13.80;98.20;;;;;;5063937;28;20486;-78
2023/05/26 07:11:51;;;;;;;1.50;1.00;;;14.00;98.20;;;;;;5063515;28;20758;-79
2023/05/26 07:14:18;;;;;;;1.60;1.20;;;14.10;98.20;;;;;;5067697;28;20473;-79
2023/05/26 07:16:45;;;;;;;1.50;1.00;;;14.10;98.20;;;;;;5066888;28;20469;-79
2023/05/26 07:19:12;;;;;;;1.47;1.00;;;14.30;98.20;;;;;;5069650;28;20475;-78
2023/05/26 07:21:39;;;;;;;3.73;3.43;;;14.40;98.20;;;;;;5073762;28;20473;-79
2023/05/26 07:24:07;;;;;;;1.60;1.50;;;14.50;98.20;;;;;;5079357;28;20525;-79
2023/05/26 07:26:36;;;;;;;1.50;1.00;;;14.50;98.20;;;;;;5075472;28;20463;-79
2023/05/26 07:29:03;;;;;;;1.43;0.90;;;14.70;98.20;;;;;;5066892;28;20485;-81
2023/05/26 07:31:30;;;;;;;1.50;0.90;;;14.70;98.20;;;;;;5064533;28;20481;-81
2023/05/26 07:33:58;;;;;;;2.40;2.20;;;14.70;98.20;;;;;;5062873;28;20526;-82
2023/05/26 07:36:25;;;;;;;2.00;1.70;;;14.90;98.20;;;;;;5061403;28;20839;-79
2023/05/26 07:38:53;;;;;;;1.60;1.30;;;15.10;98.20;;;;;;5059285;28;20882;-80
2023/05/26 07:41:21;;;;;;;1.50;1.00;;;15.30;98.20;;;;;;5057524;28;20493;-80
2023/05/26 07:43:49;;;;;;;1.50;0.90;;;15.50;98.20;;;;;;5060730;28;20857;-80
2023/05/26 07:46:19;;;;;;;1.50;0.90;;;15.70;98.20;;;;;;5067057;28;20798;-82
2023/05/26 07:48:47;;;;;;;1.50;1.00;;;15.90;98.20;;;;;;5065789;28;20560;-80
2023/05/26 07:51:16;;;;;;;1.50;0.97;;;16.00;98.20;;;;;;5064850;28;20512;-80
2023/05/26 07:53:45;;;;;;;1.47;1.00;;;16.20;98.20;;;;;;5062855;28;20462;-80
2023/05/26 07:56:13;;;;;;;1.50;0.97;;;16.30;97.30;;;;;;5060422;28;20470;-82
2023/05/26 07:58:40;;;;;;;1.50;0.90;;;16.50;96.80;;;;;;5061500;28;20469;-79
2023/05/26 08:01:09;;;;;;;1.50;0.90;;;16.60;96.50;;;;;;5061673;28;20845;-75
2023/05/26 08:03:36;;;;;;;1.50;0.90;;;16.90;96.50;;;;;;5060316;28;20462;-75
2023/05/26 08:06:03;;;;;;;1.50;0.90;;;17.10;94.60;;;;;;5059958;28;20472;-73
2023/05/26 08:08:30;;;;;;;1.50;0.90;;;17.20;93.50;;;;;;5060923;28;21093;-75
2023/05/26 08:10:57;;;;;;;1.50;0.90;;;17.10;93.70;;;;;;5060321;28;20987;-75
2023/05/26 08:13:25;;;;;;;1.50;1.10;;;17.20;94.00;;;;;;5059826;28;20919;-77
2023/05/26 08:15:52;;;;;;;1.50;0.90;;;17.30;93.60;;;;;;5057170;28;20982;-75
2023/05/26 08:18:20;;;;;;;1.50;0.90;;;17.40;94.20;;;;;;5057745;28;20590;-75
2023/05/26 08:20:52;;;;;;;1.50;1.13;;;17.50;93.50;;;;;;5060681;28;21007;-75
2023/05/26 08:23:19;;;;;;;1.50;0.90;;;17.60;93.80;;;;;;5058877;28;20526;-76
2023/05/26 08:25:47;;;;;;;1.50;1.10;;;17.80;92.40;;;;;;5059324;28;20458;-75
2023/05/26 08:28:14;;;;;;;1.50;1.00;;;18.00;92.70;;;;;;5058407;28;20752;-76
2023/05/26 08:30:42;;;;;;;1.50;0.90;;;18.20;91.80;;;;;;5056791;28;20492;-75
2023/05/26 08:33:10;;;;;;;2.43;1.87;;;18.30;92.10;;;;;;5058489;28;21012;-75
2023/05/26 08:35:39;;;;;;;1.50;1.00;;;18.30;90.90;;;;;;5060277;28;20473;-76
2023/05/26 08:38:06;;;;;;;1.43;0.90;;;18.30;91.30;;;;;;5060210;28;20480;-76
2023/05/26 08:40:34;;;;;;;1.50;1.10;;;18.40;91.80;;;;;;5066521;28;20523;-76
2023/05/26 08:43:07;;;;;;;1.50;0.90;;;18.50;90.50;;;;;;5059626;28;20557;-77
2023/05/26 08:45:35;;;;;;;1.47;0.90;;;18.70;91.30;;;;;;5056786;28;20566;-77
2023/05/26 08:48:04;;;;;;;1.50;0.90;;;18.90;90.30;;;;;;5054404;28;20486;-78
2023/05/26 08:50:31;;;;;;;1.60;1.20;;;19.00;89.90;;;;;;5061198;28;20839;-76
2023/05/26 08:53:01;;;;;;;1.50;0.90;;;19.10;90.20;;;;;;5061525;28;20793;-76
2023/05/26 08:55:28;;;;;;;1.50;0.90;;;19.10;89.70;;;;;;5059489;28;20461;-76
2023/05/26 08:57:57;;;;;;;1.50;0.90;;;19.10;88.20;;;;;;5057349;28;20493;-77
2023/05/26 09:00:29;;;;;;;1.47;0.90;;;18.90;89.30;;;;;;5055386;28;21003;-77
2023/05/26 09:02:56;;;;;;;1.50;0.90;;;18.90;90.40;;;;;;5059485;28;20539;-76
2023/05/26 09:05:24;;;;;;;1.50;0.90;;;19.10;89.20;;;;;;5059137;28;20549;-78
2023/05/26 09:07:51;;;;;;;1.50;0.90;;;19.20;89.30;;;;;;5061820;28;20851;-76
2023/05/26 09:10:27;;;;;;;1.50;0.90;;;19.40;89.10;;;;;;5058279;28;20946;-77
2023/05/26 09:13:13;;;;;;;1.50;1.00;;;19.50;89.40;;;;;;5055468;28;20546;-77
2023/05/26 09:15:42;;;;;;;1.70;1.20;;;19.70;88.60;;;;;;5055284;28;20616;-76
2023/05/26 09:18:10;;;;;;;1.47;0.90;;;19.80;89.10;;;;;;5061713;28;20473;-80
2023/05/26 09:20:41;;;;;;;1.47;0.90;;;19.90;87.80;;;;;;5059885;28;20570;-79
2023/05/26 09:23:08;;;;;;;1.43;0.87;;;20.10;86.80;;;;;;5058903;28;20995;-76
2023/05/26 09:25:40;;;;;;;1.50;0.90;;;20.20;85.80;;;;;;5060580;28;20785;-79
2023/05/26 09:28:09;;;;;;;1.50;0.90;;;20.10;86.00;;;;;;5055817;28;20482;-79
2023/05/26 09:30:38;;;;;;;1.50;0.83;;;20.10;86.30;;;;;;5057627;28;20485;-78
2023/05/26 09:33:06;;;;;;;1.50;0.90;;;20.00;86.50;;;;;;5061223;28;20464;-78
2023/05/26 09:35:36;;;;;;;1.50;0.90;;;20.20;88.10;;;;;;5060957;28;20539;-79
2023/05/26 09:38:05;;;;;;;2.33;2.13;;;20.40;85.80;;;;;;5063856;28;20461;-79
2023/05/26 09:40:33;;;;;;;1.60;1.27;;;20.50;84.00;;;;;;5059469;28;20488;-81
2023/05/26 09:43:04;;;;;;;3.07;2.80;;;20.60;85.40;;;;;;5057510;28;20613;-80
2023/05/26 09:45:35;;;;;;;1.47;0.90;;;20.70;84.30;;;;;;5061431;28;20465;-79
2023/05/26 09:48:05;;;;;;;1.50;1.10;;;20.60;84.70;;;;;;5065924;28;20493;-79
2023/05/26 09:50:33;;;;;;;1.77;1.23;;;20.70;84.70;;;;;;5063723;28;20572;-78
2023/05/26 09:53:02;;;;;;;1.50;1.03;;;20.60;83.70;;;;;;5064231;28;21042;-79
2023/05/26 09:55:30;;;;;;;1.50;0.90;;;20.70;84.30;;;;;;5059987;28;20462;-79
2023/05/26 09:58:04;;;;;;;1.50;0.90;;;20.80;84.20;;;;;;5059357;28;20485;-79
2023/05/26 10:00:33;;;;;;;1.50;0.90;;;21.00;83.90;;;;;;5063860;28;20485;-79
2023/05/26 10:03:03;;;;;;;1.50;0.83;;;21.10;84.00;;;;;;5064250;28;20461;-78
2023/05/26 10:05:32;;;;;;;3.93;1.83;;;21.30;82.10;;;;;;5062614;28;20462;-78
2023/05/26 10:08:03;;;;;;;1.50;0.90;;;21.20;83.00;;;;;;5061544;28;20469;-81
2023/05/26 10:10:31;;;;;;;1.47;0.90;;;21.40;83.10;;;;;;5057748;28;20824;-79
2023/05/26 10:12:59;;;;;;;1.43;0.80;;;21.60;82.40;;;;;;5061173;28;20469;-80
2023/05/26 10:15:29;;;;;;;1.50;1.00;;;21.60;80.60;;;;;;5062253;28;20974;-80
2023/05/26 10:18:00;;;;;;;1.50;0.90;;;21.40;80.70;;;;;;5062523;28;20465;-77
2023/05/26 10:20:29;;;;;;;1.47;0.90;;;21.30;81.30;;;;;;5063669;28;21031;-76
2023/05/26 10:23:01;;;;;;;1.50;0.87;;;21.40;82.20;;;;;;5062428;28;20470;-76
2023/05/26 10:25:36;;;;;;;1.50;1.00;;;21.50;82.40;;;;;;5094722;22;21006;-88
2023/05/26 10:28:20;;;;;;;1.40;0.83;;;21.80;80.50;;;;;;5079397;28;21030;-88
2023/05/26 10:30:48;;;;;;;1.47;0.90;;;22.00;81.90;;;;;;5071503;28;20569;-90
2023/05/26 10:33:16;;;;;;;1.40;0.90;;;22.30;82.60;;;;;;5076037;28;20465;-91
2023/05/26 10:35:54;;;;;;;1.43;0.90;;;22.50;81.30;;;;;;5096419;28;20565;-91
2023/05/26 10:38:26;;;;;;;1.47;0.90;;;22.70;79.60;;;;;;5100170;28;20460;-88
2023/05/26 10:40:55;;;;;;;1.43;0.80;;;22.90;80.60;;;;;;5088140;28;20452;-90
2023/05/26 10:43:24;;;;;;;1.50;0.90;;;23.00;78.40;;;;;;5102816;28;20835;-89
2023/05/26 10:45:57;;;;;;;1.47;0.80;;;23.10;78.50;;;;;;5090545;28;20491;-89
2023/05/26 10:48:34;;;;;;;1.43;0.80;;;23.00;78.00;;;;;;5093995;28;20533;-92
2023/05/26 10:51:07;;;;;;;1.50;0.80;;;23.10;78.90;;;;;;5095578;28;20453;-90
2023/05/26 10:53:36;;;;;;;1.50;1.00;;;23.30;79.00;;;;;;5095267;28;20844;-89
2023/05/26 10:56:04;;;;;;;1.40;0.90;;;23.40;77.30;;;;;;5089336;28;21033;-87
2023/05/26 10:58:32;;;;;;;1.90;1.33;;;23.40;76.50;;;;;;5097662;28;20539;-88
2023/05/26 11:01:07;;;;;;;1.40;0.90;;;23.20;77.30;;;;;;5091095;28;20559;-87
2023/05/26 11:03:38;;;;;;;1.70;1.47;;;23.20;78.20;;;;;;5092957;28;20481;-89
2023/05/26 11:06:10;;;;;;;1.40;0.87;;;23.40;77.20;;;;;;5093887;28;20492;-89
2023/05/26 11:08:39;;;;;;;1.43;0.90;;;23.40;76.80;;;;;;5098718;28;20487;-92
2023/05/26 11:14:38;;;;;;;1.40;0.90;;;23.70;77.50;;;;;;5091739;28;21001;-89
2023/05/26 11:17:06;;;;;;;1.43;0.80;;;23.70;77.10;;;;;;5102660;28;20459;-88
2023/05/26 11:19:35;;;;;;;1.47;0.80;;;23.70;77.60;;;;;;5100294;28;20891;-89
2023/05/26 11:22:05;;;;;;;1.50;0.90;;;23.80;75.60;;;;;;5095543;28;20857;-89
2023/05/26 11:24:33;;;;;;;1.43;0.80;;;23.70;76.40;;;;;;5091949;28;20507;-90
2023/05/26 11:27:01;;;;;;;1.40;0.80;;;23.70;76.10;;;;;;5087129;28;20471;-89
2023/05/26 11:29:29;;;;;;;1.43;0.90;;;23.60;77.00;;;;;;5093232;28;20490;-89
2023/05/26 11:33:01;;;;;;;1.40;0.80;;;23.50;76.00;;;;;;5093288;28;20457;-89
2023/05/26 11:35:32;;;;;;;1.43;0.90;;;23.70;77.50;;;;;;5053302;28;20529;-88
2023/05/26 11:38:00;;;;;;;1.40;0.90;;;24.00;77.40;;;;;;5097126;28;20482;-90
2023/05/26 11:41:15;;;;;;;1.40;0.90;;;24.20;75.40;;;;;;5092274;28;20457;-90
2023/05/26 11:47:26;;;;;;;1.50;0.80;;;24.30;75.30;;;;;;4963265;28;20517;-90
2023/05/26 11:50:24;;;;;;;1.43;0.90;;;24.50;73.50;;;;;;5006003;28;20480;-89
2023/05/26 11:52:52;;;;;;;1.43;0.80;;;24.40;75.50;;;;;;5089369;28;20565;-90
2023/05/26 11:55:24;;;;;;;1.40;0.80;;;24.30;74.50;;;;;;5088810;28;20549;-89
2023/05/26 11:57:56;;;;;;;1.47;0.90;;;24.50;75.00;;;;;;5085909;28;20456;-90
2023/05/26 12:03:22;;;;;;;1.43;0.83;;;24.40;76.00;;;;;;5042464;28;20720;-89
2023/05/26 12:05:49;;;;;;;1.43;0.80;;;24.50;74.40;;;;;;5086725;28;20484;-89
2023/05/26 12:08:17;;;;;;;1.50;1.03;;;24.30;75.50;;;;;;5092515;28;20483;-89
2023/05/26 12:10:46;;;;;;;1.47;0.90;;;24.40;75.90;;;;;;5086894;28;20510;-88
2023/05/26 12:13:13;;;;;;;1.47;0.90;;;24.30;74.10;;;;;;5096476;28;20508;-91
2023/05/26 12:15:40;;;;;;;1.43;0.80;;;24.30;75.40;;;;;;5089027;28;20516;-89
2023/05/26 12:18:08;;;;;;;1.40;0.90;;;24.50;75.50;;;;;;5089555;28;20942;-90
2023/05/26 12:21:02;;;;;;;1.43;0.80;;;24.50;74.70;;;;;;5092584;28;20452;-90
2023/05/26 12:23:30;;;;;;;1.47;0.90;;;24.40;75.60;;;;;;5091753;28;20525;-89
2023/05/26 12:25:57;;;;;;;1.47;0.90;;;24.20;74.50;;;;;;5088952;28;20491;-90
2023/05/26 12:28:25;;;;;;;1.40;0.90;;;24.10;74.80;;;;;;5086848;28;20460;-89
2023/05/26 12:30:55;;;;;;;1.47;0.90;;;24.00;75.40;;;;;;5087196;28;20490;-89
2023/05/26 12:33:22;;;;;;;2.23;1.93;;;24.00;74.70;;;;;;5085486;28;21041;-89
2023/05/26 12:35:52;;;;;;;1.43;0.90;;;24.10;76.60;;;;;;5094346;28;20476;-89
2023/05/26 12:38:24;;;;;;;1.47;0.80;;;24.30;76.60;;;;;;5093915;28;20460;-89
2023/05/26 12:40:52;;;;;;;1.60;1.30;;;24.30;74.20;;;;;;5091150;28;20514;-88
2023/05/26 12:43:20;;;;;;;1.47;0.90;;;24.30;75.10;;;;;;5092300;28;20456;-89
2023/05/26 12:45:47;;;;;;;1.50;1.00;;;24.20;74.50;;;;;;5098989;28;20488;-89
2023/05/26 12:48:14;;;;;;;1.43;0.80;;;24.20;75.30;;;;;;5087765;28;20987;-87
2023/05/26 12:50:40;;;;;;;1.50;0.90;;;24.30;74.70;;;;;;5089712;28;20677;-89
2023/05/26 12:53:10;;;;;;;1.43;0.90;;;24.30;73.70;;;;;;5090253;28;20460;-88
2023/05/26 12:55:37;;;;;;;1.43;0.80;;;24.30;76.10;;;;;;5091577;28;20934;-90
2023/05/26 12:58:05;;;;;;;1.43;0.80;;;24.40;74.40;;;;;;5090145;28;21008;-90
2023/05/26 13:00:32;;;;;;;1.43;0.80;;;24.40;74.80;;;;;;5089743;28;20464;-90
2023/05/26 13:02:59;;;;;;;1.47;0.80;;;24.60;75.70;;;;;;5089956;28;20460;-88
2023/05/26 13:05:29;;;;;;;1.43;0.80;;;24.90;73.50;;;;;;5091787;28;20484;-89
2023/05/26 13:07:56;;;;;;;1.50;1.23;;;25.00;72.50;;;;;;5089219;28;20464;-90
2023/05/26 13:10:23;;;;;;;1.43;0.80;;;24.80;72.90;;;;;;5092939;28;20480;-89